Time;durP1;ratioP1;P1;durP2;ratioP2;P2;SDS_P1;SDS_P2;PMS_P1;PMS_P2;Temp;Humidity;BMP_temperature;BMP_pressure;BME280_temperature;BME280_humidity;BME280_pressure;Samples;Min_cycle;Max_cycle;Signal;HPM_P1;HPM_P2
2022/01/15 00:00:38;;;;;;;43.05;20.35;;;;;;;-3.22;100.00;100232.53;5067453;28;20028;-70
2022/01/15 00:03:05;;;;;;;45.83;21.77;;;;;;;-3.07;100.00;100221.13;5071598;28;20473;-70
2022/01/15 00:05:31;;;;;;;47.50;20.35;;;;;;;-3.07;100.00;100221.13;5056560;28;20032;-70
2022/01/15 00:07:58;;;;;;;51.47;20.70;;;;;;;-3.06;100.00;100225.50;5065043;28;20035;-70
2022/01/15 00:10:28;;;;;;;44.75;20.98;;;;;;;-3.05;100.00;100219.25;5053775;28;20029;-70
2022/01/15 00:12:58;;;;;;;46.75;21.17;;;;;;;-3.32;100.00;100188.03;5050727;28;20049;-70
2022/01/15 00:15:30;;;;;;;;;;;;;;;-3.19;100.00;100230.59;5051555;28;20120;-70
2022/01/15 00:20:23;;;;;;;41.50;17.77;;;;;;;-3.23;100.00;100225.53;5047707;28;20108;-69
2022/01/15 00:22:50;;;;;;;39.78;18.05;;;;;;;-3.38;100.00;100212.19;5054982;28;20385;-70
2022/01/15 00:25:17;;;;;;;38.92;17.00;;;;;;;-3.26;100.00;100225.72;5050517;28;20028;-69
2022/01/15 00:27:43;;;;;;;30.48;15.55;;;;;;;-3.30;100.00;100206.50;5047577;28;20075;-70
2022/01/15 00:30:09;;;;;;;36.55;16.38;;;;;;;-3.32;100.00;100221.59;5054468;28;20029;-70
2022/01/15 00:32:35;;;;;;;40.10;16.50;;;;;;;-3.36;100.00;100215.59;5051811;28;20028;-70
2022/01/15 00:35:00;;;;;;;39.92;18.33;;;;;;;-3.28;100.00;100216.97;5053578;28;20025;-70
2022/01/15 00:37:30;;;;;;;45.13;20.33;;;;;;;-3.33;100.00;100212.81;5054245;28;20025;-70
2022/01/15 00:39:56;;;;;;;43.17;20.23;;;;;;;-3.39;100.00;100223.69;5046472;28;20132;-70
2022/01/15 00:42:22;;;;;;;42.05;21.05;;;;;;;-3.47;100.00;100228.53;5053066;28;20029;-69
2022/01/15 00:44:49;;;;;;;55.38;20.85;;;;;;;-3.58;100.00;100223.78;5042980;28;20029;-70
2022/01/15 00:47:15;;;;;;;47.88;21.73;;;;;;;-3.58;100.00;100222.94;5037032;28;20025;-70
2022/01/15 00:49:40;;;;;;;45.45;20.98;;;;;;;-3.70;100.00;100208.53;5048657;28;20167;-70
2022/01/15 00:52:05;;;;;;;41.80;20.67;;;;;;;-3.78;100.00;100198.34;5044747;28;20028;-69
2022/01/15 00:54:31;;;;;;;41.00;18.83;;;;;;;-3.71;100.00;100208.63;5053504;28;20032;-69
2022/01/15 00:56:56;;;;;;;38.72;18.65;;;;;;;-3.65;100.00;100209.16;5055279;28;20040;-70
2022/01/15 00:59:21;;;;;;;45.60;18.73;;;;;;;-3.78;100.00;100185.13;5052858;28;20029;-70
2022/01/15 01:01:47;;;;;;;47.60;19.67;;;;;;;-3.65;100.00;100210.97;5052800;28;20446;-70
2022/01/15 01:04:12;;;;;;;35.38;17.48;;;;;;;-3.66;100.00;100211.91;5045951;28;20093;-70
2022/01/15 01:06:37;;;;;;;42.28;19.50;;;;;;;-3.61;100.00;100212.53;5055410;28;20029;-70
2022/01/15 01:09:03;;;;;;;41.28;19.42;;;;;;;-3.61;100.00;100202.78;5055435;28;20164;-70
2022/01/15 01:11:41;;;;;;;47.20;20.48;;;;;;;-3.65;100.00;100192.44;5047631;28;20906;-71
2022/01/15 01:24:44;;;;;;;39.58;19.50;;;;;;;-3.49;100.00;100203.09;5051076;28;20044;-70
2022/01/15 01:27:17;;;;;;;42.80;19.77;;;;;;;-3.52;100.00;100198.81;5052954;28;20017;-70
2022/01/15 01:34:51;;;;;;;50.42;22.20;;;;;;;-3.54;100.00;100179.50;5049065;28;20733;-71
2022/01/15 01:37:30;;;;;;;38.63;17.88;;;;;;;-3.58;100.00;100178.81;5052279;28;20032;-70
2022/01/15 01:40:13;;;;;;;58.60;21.90;;;;;;;-3.43;100.00;100182.47;5053019;28;20075;-70
2022/01/15 01:42:43;;;;;;;53.35;22.63;;;;;;;-3.44;100.00;100174.59;5050793;28;20029;-70
2022/01/15 01:45:14;;;;;;;47.05;20.38;;;;;;;-3.34;100.00;100187.25;5054566;28;20025;-70
2022/01/15 01:47:43;;;;;;;39.22;18.20;;;;;;;-3.43;100.00;100171.00;5047361;28;20506;-70
2022/01/15 01:50:08;;;;;;;24.27;12.15;;;;;;;-3.47;100.00;100170.31;5053976;28;20037;-70
2022/01/15 01:52:34;;;;;;;32.70;15.30;;;;;;;-3.56;100.00;100186.69;5060765;28;20056;-70
2022/01/15 01:54:59;;;;;;;32.92;15.85;;;;;;;-3.57;100.00;100182.31;5053866;28;20064;-70
2022/01/15 01:57:24;;;;;;;36.55;17.33;;;;;;;-3.57;100.00;100169.09;5051627;28;20241;-70
2022/01/15 01:59:50;;;;;;;31.67;15.60;;;;;;;-3.63;100.00;100175.56;5043942;28;20701;-70
2022/01/15 02:02:15;;;;;;;39.70;17.38;;;;;;;-3.40;100.00;100177.00;5042958;28;20524;-70
2022/01/15 02:04:40;;;;;;;34.42;16.55;;;;;;;-3.50;100.00;100180.22;5048792;28;20105;-70
2022/01/15 02:07:06;;;;;;;30.92;14.52;;;;;;;-3.54;100.00;100177.75;5054104;28;20052;-71
2022/01/15 02:09:31;;;;;;;37.75;18.30;;;;;;;-3.68;100.00;100172.31;5069074;28;20029;-70
2022/01/15 02:11:57;;;;;;;39.47;18.17;;;;;;;-3.70;100.00;100178.59;5050547;28;20036;-71
2022/01/15 02:14:30;;;;;;;41.88;20.35;;;;;;;-3.81;100.00;100174.72;5051195;28;20074;-70
2022/01/15 02:16:57;;;;;;;41.15;17.90;;;;;;;-3.77;100.00;100175.44;5039685;28;20029;-70
2022/01/15 02:19:32;;;;;;;41.72;18.50;;;;;;;-3.80;100.00;100173.81;5050256;28;20025;-70
2022/01/15 02:24:41;;;;;;;43.80;17.65;;;;;;;-3.92;100.00;100165.63;5045823;28;20095;-70
2022/01/15 02:27:07;;;;;;;43.20;19.30;;;;;;;-3.99;100.00;100162.44;5044138;28;20526;-70
2022/01/15 02:29:32;;;;;;;35.20;18.27;;;;;;;-3.82;100.00;100170.38;5053667;28;20102;-71
2022/01/15 02:31:57;;;;;;;40.38;17.52;;;;;;;-3.99;100.00;100144.78;5050691;28;20104;-70
2022/01/15 02:34:22;;;;;;;32.17;16.58;;;;;;;-3.94;100.00;100165.69;5053375;28;20021;-71
2022/01/15 02:36:48;;;;;;;38.60;16.77;;;;;;;-3.75;100.00;100155.91;5053535;28;20489;-70
2022/01/15 02:39:13;;;;;;;38.17;17.98;;;;;;;-3.76;100.00;100140.13;5043136;28;20104;-70
2022/01/15 02:41:39;;;;;;;39.22;17.75;;;;;;;-3.79;100.00;100150.84;5051963;28;20051;-70
2022/01/15 02:44:09;;;;;;;33.17;16.10;;;;;;;-3.93;100.00;100119.84;5047631;28;20180;-70
2022/01/15 02:48:00;;;;;;;32.95;15.88;;;;;;;-3.80;100.00;100136.78;5043572;28;20039;-70
2022/01/15 02:49:21;;;;;;;34.70;15.43;;;;;;;-3.78;100.00;100141.97;5052926;28;20102;-70
2022/01/15 02:51:46;;;;;;;36.40;15.38;;;;;;;-3.79;100.00;100150.84;5045828;28;20495;-70
2022/01/15 02:54:12;;;;;;;35.67;16.02;;;;;;;-3.86;100.00;100125.66;5040736;28;20078;-70
2022/01/15 02:56:39;;;;;;;30.42;14.82;;;;;;;-3.85;100.00;100146.75;5048130;28;20112;-69
2022/01/15 02:59:07;;;;;;;36.08;15.43;;;;;;;-3.90;100.00;100143.47;5047722;28;20091;-69
2022/01/15 03:01:33;;;;;;;32.95;14.82;;;;;;;-4.00;100.00;100134.31;5065778;28;20417;-70
2022/01/15 03:03:59;;;;;;;37.92;16.48;;;;;;;-3.83;100.00;100139.56;5050406;28;20151;-69
2022/01/15 03:06:25;;;;;;;38.08;15.73;;;;;;;-3.85;100.00;100141.44;5036515;28;20395;-71
2022/01/15 03:08:52;;;;;;;32.95;16.27;;;;;;;-3.86;100.00;100126.50;5052319;28;20039;-70
2022/01/15 03:11:18;;;;;;;34.42;16.38;;;;;;;-3.96;100.00;100114.69;5046822;28;20447;-70
2022/01/15 03:13:45;;;;;;;39.75;16.80;;;;;;;-3.93;100.00;100125.13;5052009;28;20470;-71
2022/01/15 03:16:16;;;;;;;37.65;16.42;;;;;;;-3.97;100.00;100119.13;5052005;28;20390;-70
2022/01/15 03:18:42;;;;;;;36.08;16.10;;;;;;;-3.82;100.00;100117.50;5051702;28;20548;-71
2022/01/15 03:21:07;;;;;;;33.42;15.90;;;;;;;-3.82;100.00;100136.00;5048939;28;20117;-70
2022/01/15 03:23:33;;;;;;;29.75;15.15;;;;;;;-3.72;100.00;100123.16;5048569;28;20788;-70
2022/01/15 03:25:58;;;;;;;36.60;15.38;;;;;;;-3.79;100.00;100103.25;5051638;28;21205;-70
2022/01/15 03:28:24;;;;;;;35.22;15.13;;;;;;;-3.82;100.00;100101.63;5046378;28;20036;-70
2022/01/15 03:30:49;;;;;;;27.45;14.07;;;;;;;-3.64;100.00;100112.16;5051442;28;20017;-70
2022/01/15 03:33:15;;;;;;;30.23;14.75;;;;;;;-3.76;100.00;100097.81;5050303;28;20111;-70
2022/01/15 03:35:40;;;;;;;35.13;14.70;;;;;;;-3.69;100.00;100111.53;5051605;28;20021;-71
2022/01/15 03:38:06;;;;;;;37.88;15.90;;;;;;;-3.67;100.00;100105.22;5049762;28;20033;-70
2022/01/15 03:40:32;;;;;;;33.90;15.25;;;;;;;-3.82;100.00;100106.91;5033043;28;20057;-70
2022/01/15 03:42:58;;;;;;;32.88;15.73;;;;;;;-3.89;100.00;100105.53;5051477;28;20029;-70
2022/01/15 03:45:24;;;;;;;35.55;16.20;;;;;;;-3.99;100.00;100099.00;5052174;28;20017;-71
2022/01/15 03:47:49;;;;;;;34.17;17.10;;;;;;;-3.97;100.00;100097.97;5033263;28;20032;-70
2022/01/15 03:50:16;;;;;;;37.25;17.27;;;;;;;-4.01;100.00;100100.84;5044368;28;20401;-70
2022/01/15 03:52:41;;;;;;;38.40;18.70;;;;;;;-4.01;100.00;100087.63;5034767;28;20120;-70
2022/01/15 03:55:08;;;;;;;44.15;19.00;;;;;;;-3.93;100.00;100098.69;5047571;28;20060;-70
2022/01/15 03:57:35;;;;;;;44.33;21.15;;;;;;;-4.02;100.00;100064.78;5052062;28;20031;-70
2022/01/15 04:00:00;;;;;;;44.72;21.77;;;;;;;-4.06;100.00;100058.84;5041317;28;20029;-69
2022/01/15 04:02:27;;;;;;;45.38;21.67;;;;;;;-4.04;100.00;100079.88;5049765;28;20013;-69
2022/01/15 04:04:52;;;;;;;43.92;21.73;;;;;;;-4.09;100.00;100087.19;5053785;28;20041;-72
2022/01/15 04:07:18;;;;;;;45.78;22.27;;;;;;;-4.12;100.00;100090.00;5071339;28;20467;-71
2022/01/15 04:09:43;;;;;;;45.45;21.10;;;;;;;-4.12;100.00;100092.63;5057832;28;20013;-69
2022/01/15 04:12:08;;;;;;;38.20;19.17;;;;;;;-4.16;100.00;100091.09;5055414;28;20060;-70
2022/01/15 04:14:34;;;;;;;40.53;19.33;;;;;;;-4.14;100.00;100090.06;5052928;28;20085;-71
2022/01/15 04:16:59;;;;;;;46.50;20.58;;;;;;;-4.41;100.00;100056.19;5061163;28;20044;-70
2022/01/15 04:19:25;;;;;;;37.42;17.40;;;;;;;-4.25;100.00;100095.03;5071234;28;20055;-69
2022/01/15 04:21:50;;;;;;;38.65;18.90;;;;;;;-4.38;100.00;100081.59;5049236;28;20017;-69
2022/01/15 04:24:17;;;;;;;39.47;17.88;;;;;;;-4.40;100.00;100091.41;5032325;28;20215;-70
2022/01/15 04:26:43;;;;;;;37.03;17.38;;;;;;;-4.44;100.00;100090.69;5054870;28;20112;-69
2022/01/15 04:29:08;;;;;;;42.05;18.88;;;;;;;-4.35;100.00;100085.88;5046864;28;20679;-71
2022/01/15 04:31:48;;;;;;;38.15;16.58;;;;;;;-4.24;100.00;100100.25;5044071;28;20040;-70
2022/01/15 04:34:17;;;;;;;38.38;16.20;;;;;;;-4.42;100.00;100070.34;5045213;28;20033;-70
2022/01/15 04:36:43;;;;;;;42.85;18.08;;;;;;;-4.39;100.00;100082.53;5043528;28;20051;-69
2022/01/15 04:39:09;;;;;;;41.72;18.55;;;;;;;-4.30;100.00;100075.94;5043668;28;20025;-69
2022/01/15 04:41:35;;;;;;;38.30;18.10;;;;;;;-4.31;100.00;100084.81;5058580;28;20141;-69
2022/01/15 04:44:00;;;;;;;49.08;19.65;;;;;;;-4.19;100.00;100073.63;5054249;28;20025;-70
2022/01/15 04:46:25;;;;;;;44.28;18.88;;;;;;;-4.20;100.00;100070.09;5049744;28;20037;-70
2022/01/15 04:48:51;;;;;;;42.33;17.75;;;;;;;-4.24;100.00;100079.13;5049912;28;20100;-69
2022/01/15 04:51:16;;;;;;;45.50;17.90;;;;;;;-4.21;100.00;100078.13;5053787;28;20031;-70
2022/01/15 04:53:41;;;;;;;42.35;17.92;;;;;;;-4.28;100.00;100077.56;5045188;28;20029;-69
2022/01/15 04:56:06;;;;;;;36.33;17.30;;;;;;;-4.38;100.00;100076.31;5035840;28;20017;-70
2022/01/15 04:58:32;;;;;;;39.97;18.48;;;;;;;-4.48;100.00;100075.06;5047555;28;20113;-69
2022/01/15 05:00:57;;;;;;;38.45;18.27;;;;;;;-4.45;100.00;100088.13;5042329;28;20042;-69
2022/01/15 05:03:22;;;;;;;38.50;18.40;;;;;;;-4.55;100.00;100082.44;5051896;28;20387;-69
2022/01/15 05:05:48;;;;;;;38.25;17.80;;;;;;;-4.63;100.00;100084.63;5052731;28;20039;-69
2022/01/15 05:08:13;;;;;;;33.38;15.98;;;;;;;-4.69;100.00;100085.78;5054035;28;20021;-70
2022/01/15 05:10:45;;;;;;;39.63;17.48;;;;;;;-4.76;100.00;100081.72;5045390;28;20522;-70
2022/01/15 05:13:11;;;;;;;36.33;16.42;;;;;;;-4.88;100.00;100069.97;5049062;28;20147;-70
2022/01/15 05:15:36;;;;;;;34.88;17.75;;;;;;;-4.50;100.00;100090.16;5047930;28;20119;-70
2022/01/15 05:18:01;;;;;;;37.25;16.33;;;;;;;-4.64;100.00;100083.78;5039743;28;20041;-70
2022/01/15 05:20:27;;;;;;;33.80;16.55;;;;;;;-4.61;100.00;100090.69;5053160;28;20049;-70
2022/01/15 05:22:52;;;;;;;34.33;15.75;;;;;;;-4.31;100.00;100093.56;5041872;28;20060;-70
2022/01/15 05:25:18;;;;;;;36.15;16.80;;;;;;;-4.52;100.00;100068.25;5053952;28;20031;-70
2022/01/15 05:27:47;;;;;;;36.42;17.10;;;;;;;-4.48;100.00;100096.19;5042612;28;20092;-70
2022/01/15 05:30:13;;;;;;;33.80;15.98;;;;;;;-4.32;100.00;100102.44;5052382;28;20491;-70
2022/01/15 05:32:39;;;;;;;37.78;17.15;;;;;;;-4.43;100.00;100108.25;5044016;28;20104;-70
2022/01/15 05:35:04;;;;;;;40.60;17.98;;;;;;;-4.37;100.00;100104.47;5033509;28;20036;-70
2022/01/15 05:37:30;;;;;;;36.85;16.42;;;;;;;-4.46;100.00;100092.53;5032737;28;20055;-72
2022/01/15 05:39:56;;;;;;;39.80;18.10;;;;;;;-4.60;100.00;100104.75;5037129;28;20406;-73
2022/01/15 05:42:22;;;;;;;37.35;16.83;;;;;;;-4.67;100.00;100107.66;5045621;28;20647;-72
2022/01/15 05:44:47;;;;;;;35.30;15.95;;;;;;;-4.77;100.00;100100.28;5048304;28;20033;-71
2022/01/15 05:47:13;;;;;;;32.90;16.48;;;;;;;-4.86;100.00;100093.66;5052715;28;20124;-68
2022/01/15 05:49:38;;;;;;;39.33;17.40;;;;;;;-5.00;100.00;100078.50;5050596;28;20032;-69
2022/01/15 05:52:05;;;;;;;41.28;18.35;;;;;;;-4.93;100.00;100102.78;5050657;28;20483;-70
2022/01/15 05:54:30;;;;;;;44.13;21.05;;;;;;;-4.96;100.00;100101.16;5050755;28;20033;-68
2022/01/15 05:56:56;;;;;;;43.38;19.48;;;;;;;-5.06;100.00;100084.03;5051304;28;20025;-70
2022/01/15 05:59:21;;;;;;;43.70;20.20;;;;;;;-5.05;100.00;100084.94;5053464;28;20047;-71
2022/01/15 06:01:47;;;;;;;54.45;22.17;;;;;;;-5.13;100.00;100066.81;5048308;28;20040;-71
2022/01/15 06:04:12;;;;;;;38.67;18.85;;;;;;;-4.93;100.00;100100.16;5053435;28;20108;-72
2022/01/15 06:06:37;;;;;;;39.63;17.95;;;;;;;-4.90;100.00;100089.44;5059550;28;20039;-69
2022/01/15 06:09:03;;;;;;;38.05;18.35;;;;;;;-5.06;100.00;100073.50;5055041;28;20171;-69
2022/01/15 06:11:29;;;;;;;42.67;19.55;;;;;;;-5.00;100.00;100094.31;5046316;28;20108;-71
2022/01/15 06:13:55;;;;;;;48.55;19.52;;;;;;;-5.12;100.00;100087.84;5053616;28;20494;-70
2022/01/15 06:16:21;;;;;;;43.88;19.23;;;;;;;-5.01;100.00;100089.97;5053223;28;20029;-69
2022/01/15 06:18:46;;;;;;;45.85;19.92;;;;;;;-5.14;100.00;100073.84;5053967;28;20028;-72
2022/01/15 06:21:12;;;;;;;41.17;18.60;;;;;;;-5.02;100.00;100090.06;5052781;28;20060;-72
2022/01/15 06:23:37;;;;;;;40.67;19.40;;;;;;;-5.17;100.00;100081.06;5050096;28;20025;-74
2022/01/15 06:26:02;;;;;;;46.38;18.40;;;;;;;-5.25;100.00;100073.50;5044310;28;20052;-73
2022/01/15 06:28:28;;;;;;;65.35;18.67;;;;;;;-5.19;100.00;100089.03;5031221;28;20072;-73
2022/01/15 06:30:53;;;;;;;42.67;19.27;;;;;;;-5.34;100.00;100074.81;5050507;28;20025;-73
2022/01/15 06:33:18;;;;;;;91.78;22.20;;;;;;;-5.27;100.00;100075.34;5041128;28;20049;-72
2022/01/15 06:35:44;;;;;;;116.35;22.65;;;;;;;-5.31;100.00;100079.09;5046803;28;20021;-72
2022/01/15 06:38:10;;;;;;;109.43;23.38;;;;;;;-5.42;100.00;100060.25;5054418;28;20029;-73
2022/01/15 06:40:35;;;;;;;135.15;26.10;;;;;;;-5.33;100.00;100080.94;5052314;28;20378;-73
2022/01/15 06:43:01;;;;;;;124.65;23.02;;;;;;;-5.31;100.00;100073.81;5048073;28;20028;-72
2022/01/15 06:45:28;;;;;;;73.45;24.27;;;;;;;-5.16;100.00;100067.81;5050791;28;20028;-72
2022/01/15 06:47:54;;;;;;;180.70;24.60;;;;;;;-5.01;100.00;100087.31;5038164;28;20032;-68
2022/01/15 06:50:20;;;;;;;134.00;25.33;;;;;;;-5.02;100.00;100069.78;5041473;28;20025;-70
2022/01/15 06:52:45;;;;;;;107.00;25.58;;;;;;;-5.05;100.00;100067.31;5040095;28;20112;-72
2022/01/15 06:55:11;;;;;;;141.50;25.80;;;;;;;-4.90;100.00;100074.50;5046974;28;20116;-73
2022/01/15 06:57:37;;;;;;;83.03;24.25;;;;;;;-4.89;100.00;100073.53;5049696;28;20116;-73
2022/01/15 07:00:07;;;;;;;166.55;27.17;;;;;;;-4.89;100.00;100076.19;5050860;28;20048;-73
2022/01/15 07:02:32;;;;;;;71.43;24.17;;;;;;;-4.93;100.00;100058.78;5048118;28;20025;-72
2022/01/15 07:04:58;;;;;;;70.88;23.67;;;;;;;-4.85;100.00;100045.22;5043216;28;20120;-71
2022/01/15 07:07:23;;;;;;;202.13;29.48;;;;;;;-4.72;100.00;100067.44;5048455;28;20339;-71
2022/01/15 07:09:48;;;;;;;73.93;26.88;;;;;;;-4.62;100.00;100076.59;5043569;28;20418;-71
2022/01/15 07:12:14;;;;;;;113.57;28.02;;;;;;;-4.65;100.00;100068.84;5047071;28;20036;-71
2022/01/15 07:14:39;;;;;;;123.15;28.38;;;;;;;-4.47;100.00;100076.78;5041802;28;20056;-71
2022/01/15 07:17:05;;;;;;;178.82;27.52;;;;;;;-4.59;100.00;100067.69;5042243;28;20029;-71
2022/01/15 07:19:31;;;;;;;102.38;23.08;;;;;;;-4.49;100.00;100078.66;5043126;28;20057;-71
2022/01/15 07:21:57;;;;;;;84.70;21.55;;;;;;;-4.47;100.00;100072.34;5044321;28;20017;-71
2022/01/15 07:24:22;;;;;;;148.73;25.40;;;;;;;-4.45;100.00;100064.38;5047964;28;20488;-71
2022/01/15 07:26:47;;;;;;;84.03;21.13;;;;;;;-4.31;100.00;100075.06;5043519;28;20032;-71
2022/01/15 07:29:16;;;;;;;104.07;23.45;;;;;;;-4.28;100.00;100074.06;5044253;28;20020;-71
2022/01/15 07:31:44;;;;;;;165.52;24.92;;;;;;;-4.26;100.00;100075.69;5045628;28;20115;-71
2022/01/15 07:34:10;;;;;;;42.00;15.82;;;;;;;-4.16;100.00;100059.38;5043255;28;20089;-71
2022/01/15 07:36:36;;;;;;;96.38;22.23;;;;;;;-4.11;100.00;100059.97;5047964;28;20108;-71
2022/01/15 07:39:03;;;;;;;217.05;25.13;;;;;;;-4.19;100.00;100073.63;5040839;28;20036;-71
2022/01/15 07:41:29;;;;;;;116.07;22.48;;;;;;;-4.29;100.00;100052.09;5043737;28;20031;-71
2022/01/15 07:43:54;;;;;;;81.53;18.65;;;;;;;-4.02;100.00;100073.56;5050967;28;20021;-72
2022/01/15 07:46:20;;;;;;;54.63;19.73;;;;;;;-3.99;100.00;100072.56;5050131;28;20021;-71
2022/01/15 07:48:45;;;;;;;55.83;19.30;;;;;;;-3.89;100.00;100067.66;5053087;28;20091;-73
2022/01/15 07:51:10;;;;;;;64.88;20.02;;;;;;;-3.85;100.00;100064.78;5049903;28;20079;-72
2022/01/15 07:53:35;;;;;;;56.13;18.73;;;;;;;-3.84;100.00;100061.19;5051492;28;20029;-70
2022/01/15 07:56:01;;;;;;;135.48;21.70;;;;;;;-3.76;100.00;100053.69;5051994;28;20040;-72
2022/01/15 07:58:26;;;;;;;142.65;19.42;;;;;;;-3.76;100.00;100074.84;5045186;28;20060;-72
2022/01/15 08:00:52;;;;;;;120.93;17.95;;;;;;;-3.70;100.00;100071.03;5035027;28;20025;-70
2022/01/15 08:03:18;;;;;;;88.18;17.98;;;;;;;-3.57;100.00;100068.59;5036839;28;20425;-69
2022/01/15 08:05:44;;;;;;;64.97;17.70;;;;;;;-3.41;100.00;100061.50;5037471;28;20041;-70
2022/01/15 08:08:09;;;;;;;100.65;18.10;;;;;;;-3.37;100.00;100054.28;5039139;28;20044;-70
2022/01/15 08:10:34;;;;;;;63.67;16.27;;;;;;;-3.27;100.00;100058.13;5044018;28;20505;-69
2022/01/15 08:13:00;;;;;;;90.07;15.90;;;;;;;-3.17;100.00;100066.41;5047236;28;20029;-70
2022/01/15 08:15:26;;;;;;;40.85;15.75;;;;;;;-3.00;100.00;100063.66;5040754;28;20040;-69
2022/01/15 08:17:51;;;;;;;77.65;16.08;;;;;;;-3.09;100.00;100048.31;5042095;28;20032;-71
2022/01/15 08:20:18;;;;;;;61.08;14.75;;;;;;;-2.94;100.00;100047.44;5049204;28;20037;-72
2022/01/15 08:22:45;;;;;;;86.75;16.08;;;;;;;-3.05;100.00;100049.84;5049068;28;20120;-71
2022/01/15 08:25:16;;;;;;;101.05;16.27;;;;;;;-2.89;100.00;100048.03;5053476;28;20028;-71
2022/01/15 08:27:41;;;;;;;62.33;15.55;;;;;;;-2.95;100.00;100040.44;5045563;28;20025;-72
2022/01/15 08:30:08;;;;;;;68.13;14.18;;;;;;;-2.78;100.00;100049.19;5052050;28;20055;-71
2022/01/15 08:32:33;;;;;;;42.67;14.75;;;;;;;-2.89;100.00;100018.88;5054623;28;20148;-68
2022/01/15 08:34:59;;;;;;;75.80;15.27;;;;;;;-2.76;100.00;100048.19;5053425;28;20067;-71
2022/01/15 08:37:24;;;;;;;45.95;14.30;;;;;;;-2.70;100.00;100047.84;5044060;28;20026;-71
2022/01/15 08:39:49;;;;;;;58.22;16.17;;;;;;;-2.54;100.00;100041.63;5056482;28;20043;-70
2022/01/15 08:42:15;;;;;;;37.35;14.32;;;;;;;-2.42;100.00;100043.56;5052665;28;20429;-71
2022/01/15 08:44:43;;;;;;;61.65;15.23;;;;;;;-2.38;100.00;100031.84;5050038;28;20112;-71
2022/01/15 08:47:09;;;;;;;44.35;14.57;;;;;;;-2.44;100.00;100035.72;5055361;28;20021;-72
2022/01/15 08:49:35;;;;;;;65.10;15.52;;;;;;;-2.17;100.00;100048.28;5047959;28;20029;-72
2022/01/15 08:52:01;;;;;;;102.07;16.42;;;;;;;-2.25;100.00;100040.78;5052133;28;20037;-73
2022/01/15 08:54:26;;;;;;;31.88;14.68;;;;;;;-2.11;100.00;100034.63;5055393;28;20068;-71
2022/01/15 08:56:51;;;;;;;24.67;13.55;;;;;;;-1.90;100.00;100040.44;5050771;28;20028;-71
2022/01/15 08:59:17;;;;;;;32.00;13.10;;;;;;;-1.80;100.00;100041.59;5048573;28;20024;-71
2022/01/15 09:01:42;;;;;;;28.00;13.38;;;;;;;-1.64;100.00;100025.56;5053176;28;20037;-72
2022/01/15 09:04:07;;;;;;;44.63;13.40;;;;;;;-1.87;100.00;100037.59;5043689;28;20037;-64
2022/01/15 09:06:33;;;;;;;40.53;13.63;;;;;;;-1.74;100.00;100039.50;5045862;28;20536;-71
2022/01/15 09:08:58;;;;;;;59.40;14.05;;;;;;;-1.68;100.00;100039.97;5047150;28;20448;-72
2022/01/15 09:11:24;;;;;;;83.85;13.55;;;;;;;-1.89;100.00;100031.53;5045176;28;20029;-72
2022/01/15 09:13:49;;;;;;;48.47;12.85;;;;;;;-1.61;100.00;100043.94;5046276;28;20025;-71
2022/01/15 09:16:15;;;;;;;76.25;14.65;;;;;;;-1.61;100.00;100051.91;5044277;28;20615;-72
2022/01/15 09:18:40;;;;;;;51.80;13.05;;;;;;;-1.57;100.00;100045.47;5041527;28;20550;-71
2022/01/15 09:21:06;;;;;;;33.33;12.73;;;;;;;-1.38;100.00;100039.00;5042456;28;21257;-72
2022/01/15 09:23:31;;;;;;;50.60;13.75;;;;;;;-1.31;100.00;100019.09;5051001;28;20094;-74
2022/01/15 09:25:58;;;;;;;27.48;12.52;;;;;;;-1.04;100.00;100043.00;5045341;28;20045;-73
2022/01/15 09:31:09;;;;;;;46.72;14.20;;;;;;;-0.47;100.00;100036.63;5047644;28;20039;-77
2022/01/15 09:33:34;;;;;;;59.53;14.13;;;;;;;-0.62;98.37;100042.97;5047923;28;20025;-72
2022/01/15 09:36:01;;;;;;;61.85;12.90;;;;;;;-0.83;96.79;100037.25;5044279;28;20478;-73
2022/01/15 09:38:26;;;;;;;80.90;16.52;;;;;;;-0.87;96.70;100047.22;5043079;28;20032;-74
2022/01/15 09:40:51;;;;;;;66.45;16.00;;;;;;;-0.64;98.42;100020.94;5042827;28;20505;-74
2022/01/15 09:43:17;;;;;;;54.47;16.63;;;;;;;-0.39;97.06;100030.78;5047223;28;20036;-74
2022/01/15 09:45:44;;;;;;;34.30;13.98;;;;;;;-0.14;96.24;100043.28;5058318;28;20053;-74
2022/01/15 09:48:10;;;;;;;46.63;14.82;;;;;;;-0.28;92.83;100020.28;5070140;28;20021;-74
2022/01/15 09:50:43;;;;;;;62.60;18.67;;;;;;;-0.54;94.42;100030.88;5071735;28;20148;-74
2022/01/15 09:53:11;;;;;;;39.60;18.02;;;;;;;-0.11;96.01;100025.28;5066466;28;20031;-72
2022/01/15 09:55:37;;;;;;;35.40;15.52;;;;;;;0.10;95.05;100028.28;5070457;28;20051;-73
2022/01/15 09:58:03;;;;;;;45.28;14.77;;;;;;;0.05;93.44;100014.44;5068585;28;20029;-73
2022/01/15 10:00:29;;;;;;;45.30;16.88;;;;;;;0.21;92.19;100022.22;5056593;28;20250;-72
2022/01/15 10:02:55;;;;;;;36.13;14.38;;;;;;;0.44;93.06;100021.44;5050007;28;20059;-71
2022/01/15 10:05:21;;;;;;;39.05;15.02;;;;;;;0.52;91.92;100023.53;5047648;28;20028;-71
2022/01/15 10:08:02;;;;;;;34.40;13.90;;;;;;;0.88;91.60;100019.22;5048306;28;20041;-72
2022/01/15 10:10:30;;;;;;;30.00;15.68;;;;;;;1.04;87.36;100009.13;5045762;28;20076;-72
2022/01/15 10:13:09;;;;;;;47.03;14.93;;;;;;;1.34;88.03;100007.84;5043756;28;20044;-72
2022/01/15 10:15:34;;;;;;;;;;;;;;;1.54;86.93;99995.63;5051032;28;20025;-72
2022/01/15 10:18:00;;;;;;;36.92;14.95;;;;;;;1.70;85.18;99992.66;5040639;28;19919;-71
2022/01/15 10:20:35;;;;;;;37.30;16.38;;;;;;;1.73;84.28;99992.44;5045649;28;20410;-72
2022/01/15 10:23:01;;;;;;;36.30;15.93;;;;;;;1.76;83.93;99978.88;5046940;28;20018;-72
2022/01/15 10:25:26;;;;;;;31.52;14.52;;;;;;;1.89;83.43;99992.97;5045465;28;20047;-72
2022/01/15 10:27:54;;;;;;;41.33;16.23;;;;;;;1.69;82.92;99986.47;5048708;28;20025;-72
2022/01/15 10:30:26;;;;;;;39.47;16.10;;;;;;;1.81;83.68;99978.50;5044635;28;20040;-72
2022/01/15 10:33:00;;;;;;;33.47;15.55;;;;;;;1.90;84.24;99985.78;5047271;28;20037;-70
2022/01/15 10:35:30;;;;;;;46.58;15.68;;;;;;;2.30;81.88;99967.47;5036621;28;20494;-72
2022/01/15 10:38:16;;;;;;;56.13;16.13;;;;;;;2.48;79.54;99961.66;5036380;28;20033;-75
2022/01/15 10:40:47;;;;;;;40.60;14.98;;;;;;;2.58;79.14;99975.97;5050014;28;20032;-73
2022/01/15 10:43:16;;;;;;;45.10;13.93;;;;;;;2.09;81.16;99980.72;5051831;28;20102;-72
2022/01/15 10:45:49;;;;;;;29.80;15.85;;;;;;;2.46;80.70;99969.78;5051141;28;20406;-72
2022/01/15 10:48:27;;;;;;;37.00;14.80;;;;;;;2.57;80.30;99961.78;5047315;28;20029;-73
2022/01/15 10:50:57;;;;;;;32.38;15.60;;;;;;;2.37;79.37;99925.13;5037764;28;20040;-72
2022/01/15 10:53:34;;;;;;;35.30;17.55;;;;;;;2.94;77.47;99948.09;5048443;28;20033;-72
2022/01/15 10:55:59;;;;;;;47.42;20.25;;;;;;;2.83;77.51;99932.94;5043093;28;20040;-72
2022/01/15 10:58:25;;;;;;;37.28;18.60;;;;;;;2.81;78.90;99942.91;5043371;28;20033;-72
2022/01/15 11:00:52;;;;;;;40.72;19.58;;;;;;;2.74;79.63;99925.66;5047036;28;20048;-73
2022/01/15 11:03:18;;;;;;;38.65;19.60;;;;;;;2.95;78.52;99938.22;5042370;28;20488;-73
2022/01/15 11:05:49;;;;;;;83.30;21.65;;;;;;;3.27;76.10;99925.72;5047046;28;20037;-72
2022/01/15 11:08:26;;;;;;;43.90;20.35;;;;;;;3.15;74.54;99924.06;5043739;28;20017;-73
2022/01/15 11:11:01;;;;;;;46.53;21.40;;;;;;;3.49;75.96;99923.91;5036862;28;20093;-73
2022/01/15 11:13:29;;;;;;;50.00;21.52;;;;;;;3.79;75.94;99908.84;5032651;28;20060;-73
2022/01/15 11:15:58;;;;;;;46.38;21.60;;;;;;;4.59;71.22;99916.94;5036592;28;20068;-73
2022/01/15 11:18:26;;;;;;;42.40;21.00;;;;;;;5.33;69.24;99920.94;5039065;28;20017;-73
2022/01/15 11:20:53;;;;;;;38.00;19.38;;;;;;;6.05;66.53;99914.19;5044788;28;20039;-71
2022/01/15 11:23:21;;;;;;;33.83;19.08;;;;;;;6.45;63.73;99918.38;5037463;28;20035;-73
2022/01/15 11:25:48;;;;;;;30.50;16.27;;;;;;;7.31;61.53;99911.69;5037434;28;20082;-73